sensor_id;sensor_type;location;lat;lon;timestamp;P1;durP1;ratioP1;P2;durP2;ratioP2
16314;SDS011;8266;52.150;4.768;2022-08-04T00:01:34;1.55;;;1.40;;
16314;SDS011;8266;52.150;4.768;2022-08-04T00:04:07;2.65;;;1.67;;
16314;SDS011;8266;52.150;4.768;2022-08-04T00:06:43;2.75;;;1.92;;
16314;SDS011;8266;52.150;4.768;2022-08-04T00:09:23;4.63;;;1.77;;
16314;SDS011;8266;52.150;4.768;2022-08-04T00:11:56;2.55;;;1.90;;
16314;SDS011;8266;52.150;4.768;2022-08-04T00:14:26;2.00;;;1.65;;
16314;SDS011;8266;52.150;4.768;2022-08-04T00:17:03;3.83;;;2.08;;
16314;SDS011;8266;52.150;4.768;2022-08-04T00:19:38;1.70;;;1.48;;
16314;SDS011;8266;52.150;4.768;2022-08-04T00:22:09;3.53;;;2.10;;
16314;SDS011;8266;52.150;4.768;2022-08-04T00:24:38;2.63;;;1.55;;
16314;SDS011;8266;52.150;4.768;2022-08-04T00:27:06;3.00;;;1.83;;
16314;SDS011;8266;52.150;4.768;2022-08-04T00:29:34;3.25;;;1.83;;
16314;SDS011;8266;52.150;4.768;2022-08-04T00:32:05;3.22;;;2.10;;
16314;SDS011;8266;52.150;4.768;2022-08-04T00:34:32;5.25;;;2.10;;
16314;SDS011;8266;52.150;4.768;2022-08-04T00:37:00;2.20;;;1.70;;
16314;SDS011;8266;52.150;4.768;2022-08-04T00:39:27;2.38;;;1.95;;
16314;SDS011;8266;52.150;4.768;2022-08-04T00:45:02;2.17;;;1.90;;
16314;SDS011;8266;52.150;4.768;2022-08-04T00:47:56;2.25;;;1.95;;
16314;SDS011;8266;52.150;4.768;2022-08-04T00:50:35;4.93;;;2.08;;
16314;SDS011;8266;52.150;4.768;2022-08-04T00:53:12;5.38;;;2.15;;
16314;SDS011;8266;52.150;4.768;2022-08-04T00:59:01;3.13;;;1.88;;
16314;SDS011;8266;52.150;4.768;2022-08-04T01:01:40;3.92;;;2.10;;
16314;SDS011;8266;52.150;4.768;2022-08-04T01:04:23;1.95;;;1.70;;
16314;SDS011;8266;52.150;4.768;2022-08-04T01:07:14;5.47;;;2.03;;
16314;SDS011;8266;52.150;4.768;2022-08-04T01:09:51;2.05;;;1.58;;
16314;SDS011;8266;52.150;4.768;2022-08-04T01:15:24;2.10;;;1.75;;
16314;SDS011;8266;52.150;4.768;2022-08-04T01:17:58;2.92;;;1.70;;
16314;SDS011;8266;52.150;4.768;2022-08-04T01:20:34;4.30;;;2.40;;
16314;SDS011;8266;52.150;4.768;2022-08-04T01:26:26;2.53;;;2.33;;
16314;SDS011;8266;52.150;4.768;2022-08-04T01:29:10;3.80;;;2.40;;
16314;SDS011;8266;52.150;4.768;2022-08-04T01:31:41;2.13;;;1.85;;
16314;SDS011;8266;52.150;4.768;2022-08-04T01:34:22;2.60;;;1.98;;
16314;SDS011;8266;52.150;4.768;2022-08-04T01:36:56;3.20;;;1.80;;
16314;SDS011;8266;52.150;4.768;2022-08-04T01:39:29;1.90;;;1.65;;
16314;SDS011;8266;52.150;4.768;2022-08-04T01:42:07;3.38;;;1.70;;
16314;SDS011;8266;52.150;4.768;2022-08-04T01:44:38;3.92;;;2.08;;
16314;SDS011;8266;52.150;4.768;2022-08-04T01:47:09;3.17;;;2.30;;
16314;SDS011;8266;52.150;4.768;2022-08-04T01:49:37;2.65;;;1.80;;
16314;SDS011;8266;52.150;4.768;2022-08-04T01:52:07;3.42;;;1.80;;
16314;SDS011;8266;52.150;4.768;2022-08-04T01:54:40;3.05;;;2.20;;
16314;SDS011;8266;52.150;4.768;2022-08-04T01:57:08;2.83;;;2.05;;
16314;SDS011;8266;52.150;4.768;2022-08-04T01:59:37;2.70;;;1.60;;
16314;SDS011;8266;52.150;4.768;2022-08-04T02:02:05;2.70;;;1.88;;
16314;SDS011;8266;52.150;4.768;2022-08-04T02:04:35;5.45;;;2.65;;
16314;SDS011;8266;52.150;4.768;2022-08-04T02:07:10;4.25;;;2.50;;
16314;SDS011;8266;52.150;4.768;2022-08-04T02:09:46;2.15;;;1.90;;
16314;SDS011;8266;52.150;4.768;2022-08-04T02:12:22;2.30;;;2.10;;
16314;SDS011;8266;52.150;4.768;2022-08-04T02:14:59;2.65;;;1.98;;
16314;SDS011;8266;52.150;4.768;2022-08-04T02:17:35;1.92;;;1.77;;
16314;SDS011;8266;52.150;4.768;2022-08-04T02:20:11;3.00;;;1.90;;
16314;SDS011;8266;52.150;4.768;2022-08-04T02:22:45;2.55;;;2.08;;
16314;SDS011;8266;52.150;4.768;2022-08-04T02:25:18;4.82;;;2.72;;
16314;SDS011;8266;52.150;4.768;2022-08-04T02:27:55;4.03;;;1.98;;
16314;SDS011;8266;52.150;4.768;2022-08-04T02:30:39;3.30;;;2.22;;
16314;SDS011;8266;52.150;4.768;2022-08-04T02:33:12;2.45;;;2.25;;
16314;SDS011;8266;52.150;4.768;2022-08-04T02:35:47;5.05;;;2.40;;
16314;SDS011;8266;52.150;4.768;2022-08-04T02:38:20;2.95;;;2.42;;
16314;SDS011;8266;52.150;4.768;2022-08-04T02:40:53;4.60;;;2.95;;
16314;SDS011;8266;52.150;4.768;2022-08-04T02:43:21;3.72;;;2.70;;
16314;SDS011;8266;52.150;4.768;2022-08-04T02:45:52;3.30;;;2.05;;
16314;SDS011;8266;52.150;4.768;2022-08-04T02:48:24;7.00;;;2.70;;
16314;SDS011;8266;52.150;4.768;2022-08-04T02:50:54;3.65;;;2.60;;
16314;SDS011;8266;52.150;4.768;2022-08-04T02:53:24;2.63;;;2.28;;
16314;SDS011;8266;52.150;4.768;2022-08-04T02:55:52;3.92;;;2.47;;
16314;SDS011;8266;52.150;4.768;2022-08-04T02:58:21;3.25;;;2.40;;
16314;SDS011;8266;52.150;4.768;2022-08-04T03:00:54;4.25;;;2.55;;
16314;SDS011;8266;52.150;4.768;2022-08-04T03:03:23;4.20;;;2.50;;
16314;SDS011;8266;52.150;4.768;2022-08-04T03:09:08;3.00;;;2.70;;
16314;SDS011;8266;52.150;4.768;2022-08-04T03:11:58;6.88;;;2.50;;
16314;SDS011;8266;52.150;4.768;2022-08-04T03:14:58;3.53;;;2.40;;
16314;SDS011;8266;52.150;4.768;2022-08-04T03:17:52;3.63;;;2.55;;
16314;SDS011;8266;52.150;4.768;2022-08-04T03:20:52;3.65;;;2.13;;
16314;SDS011;8266;52.150;4.768;2022-08-04T03:26:51;2.70;;;2.28;;
16314;SDS011;8266;52.150;4.768;2022-08-04T03:32:49;2.20;;;2.00;;
16314;SDS011;8266;52.150;4.768;2022-08-04T03:35:47;2.92;;;2.15;;
16314;SDS011;8266;52.150;4.768;2022-08-04T03:38:39;2.70;;;2.50;;
16314;SDS011;8266;52.150;4.768;2022-08-04T03:41:38;2.13;;;1.90;;
16314;SDS011;8266;52.150;4.768;2022-08-04T03:44:27;4.32;;;2.33;;
16314;SDS011;8266;52.150;4.768;2022-08-04T03:47:21;2.15;;;1.85;;
16314;SDS011;8266;52.150;4.768;2022-08-04T03:50:10;3.15;;;2.70;;
16314;SDS011;8266;52.150;4.768;2022-08-04T03:53:08;5.05;;;2.88;;
16314;SDS011;8266;52.150;4.768;2022-08-04T03:55:57;3.28;;;2.55;;
16314;SDS011;8266;52.150;4.768;2022-08-04T03:59:06;4.30;;;2.70;;
16314;SDS011;8266;52.150;4.768;2022-08-04T04:01:57;3.80;;;2.42;;
16314;SDS011;8266;52.150;4.768;2022-08-04T04:04:42;6.43;;;3.05;;
16314;SDS011;8266;52.150;4.768;2022-08-04T04:07:27;4.10;;;2.50;;
16314;SDS011;8266;52.150;4.768;2022-08-04T04:10:22;3.15;;;2.35;;
16314;SDS011;8266;52.150;4.768;2022-08-04T04:13:02;10.65;;;3.28;;
16314;SDS011;8266;52.150;4.768;2022-08-04T04:18:51;3.03;;;2.63;;
16314;SDS011;8266;52.150;4.768;2022-08-04T04:21:28;4.57;;;2.80;;
16314;SDS011;8266;52.150;4.768;2022-08-04T04:27:13;2.97;;;2.78;;
16314;SDS011;8266;52.150;4.768;2022-08-04T04:30:04;5.05;;;2.47;;
16314;SDS011;8266;52.150;4.768;2022-08-04T04:32:56;7.00;;;2.67;;
16314;SDS011;8266;52.150;4.768;2022-08-04T04:35:41;3.22;;;2.67;;
16314;SDS011;8266;52.150;4.768;2022-08-04T04:38:22;4.40;;;2.65;;
16314;SDS011;8266;52.150;4.768;2022-08-04T04:41:13;4.35;;;3.05;;
16314;SDS011;8266;52.150;4.768;2022-08-04T04:43:56;6.10;;;2.60;;
16314;SDS011;8266;52.150;4.768;2022-08-04T04:46:45;4.07;;;2.80;;
16314;SDS011;8266;52.150;4.768;2022-08-04T04:49:19;5.55;;;3.05;;
16314;SDS011;8266;52.150;4.768;2022-08-04T04:51:54;3.17;;;2.45;;
16314;SDS011;8266;52.150;4.768;2022-08-04T04:54:31;5.78;;;2.70;;
16314;SDS011;8266;52.150;4.768;2022-08-04T04:57:04;4.88;;;2.67;;
16314;SDS011;8266;52.150;4.768;2022-08-04T04:59:38;3.10;;;2.70;;
16314;SDS011;8266;52.150;4.768;2022-08-04T05:02:32;3.97;;;2.35;;
16314;SDS011;8266;52.150;4.768;2022-08-04T05:05:20;3.72;;;2.13;;
16314;SDS011;8266;52.150;4.768;2022-08-04T05:08:02;5.30;;;2.10;;
16314;SDS011;8266;52.150;4.768;2022-08-04T05:10:48;2.60;;;2.08;;
16314;SDS011;8266;52.150;4.768;2022-08-04T05:13:33;3.15;;;2.50;;
16314;SDS011;8266;52.150;4.768;2022-08-04T05:16:06;3.15;;;2.28;;
16314;SDS011;8266;52.150;4.768;2022-08-04T05:18:39;4.15;;;2.45;;
16314;SDS011;8266;52.150;4.768;2022-08-04T05:21:14;5.72;;;2.30;;
16314;SDS011;8266;52.150;4.768;2022-08-04T05:23:52;2.20;;;2.00;;
16314;SDS011;8266;52.150;4.768;2022-08-04T05:26:25;3.78;;;2.30;;
16314;SDS011;8266;52.150;4.768;2022-08-04T05:28:58;2.92;;;2.00;;
16314;SDS011;8266;52.150;4.768;2022-08-04T05:31:33;6.13;;;1.90;;
16314;SDS011;8266;52.150;4.768;2022-08-04T05:34:06;8.13;;;2.53;;
16314;SDS011;8266;52.150;4.768;2022-08-04T05:36:38;3.70;;;2.13;;
16314;SDS011;8266;52.150;4.768;2022-08-04T05:39:09;4.90;;;2.28;;
16314;SDS011;8266;52.150;4.768;2022-08-04T05:41:41;4.68;;;2.20;;
16314;SDS011;8266;52.150;4.768;2022-08-04T05:44:09;2.08;;;1.42;;
16314;SDS011;8266;52.150;4.768;2022-08-04T05:46:39;2.05;;;1.77;;
16314;SDS011;8266;52.150;4.768;2022-08-04T05:49:07;2.55;;;1.80;;
16314;SDS011;8266;52.150;4.768;2022-08-04T05:51:35;2.70;;;1.73;;
16314;SDS011;8266;52.150;4.768;2022-08-04T05:54:03;3.38;;;1.67;;
16314;SDS011;8266;52.150;4.768;2022-08-04T05:56:32;3.70;;;1.60;;
16314;SDS011;8266;52.150;4.768;2022-08-04T05:59:02;1.98;;;1.48;;
16314;SDS011;8266;52.150;4.768;2022-08-04T06:01:31;3.40;;;2.38;;
16314;SDS011;8266;52.150;4.768;2022-08-04T06:04:00;2.10;;;1.52;;
16314;SDS011;8266;52.150;4.768;2022-08-04T06:06:28;2.25;;;1.30;;
16314;SDS011;8266;52.150;4.768;2022-08-04T06:08:56;2.78;;;1.80;;
16314;SDS011;8266;52.150;4.768;2022-08-04T06:11:23;4.57;;;1.60;;
16314;SDS011;8266;52.150;4.768;2022-08-04T06:13:55;2.53;;;1.63;;
16314;SDS011;8266;52.150;4.768;2022-08-04T06:16:26;2.67;;;1.60;;
16314;SDS011;8266;52.150;4.768;2022-08-04T06:18:58;3.28;;;1.63;;
16314;SDS011;8266;52.150;4.768;2022-08-04T06:21:29;4.10;;;1.63;;
16314;SDS011;8266;52.150;4.768;2022-08-04T06:24:10;4.45;;;1.80;;
16314;SDS011;8266;52.150;4.768;2022-08-04T06:29:29;4.68;;;1.90;;
16314;SDS011;8266;52.150;4.768;2022-08-04T06:32:00;2.72;;;1.35;;
16314;SDS011;8266;52.150;4.768;2022-08-04T06:34:39;3.67;;;1.58;;
16314;SDS011;8266;52.150;4.768;2022-08-04T06:37:07;2.40;;;1.23;;
16314;SDS011;8266;52.150;4.768;2022-08-04T06:39:36;3.10;;;1.58;;
16314;SDS011;8266;52.150;4.768;2022-08-04T06:42:04;2.83;;;1.25;;
16314;SDS011;8266;52.150;4.768;2022-08-04T06:44:34;3.72;;;1.48;;
16314;SDS011;8266;52.150;4.768;2022-08-04T06:47:02;3.10;;;1.50;;
16314;SDS011;8266;52.150;4.768;2022-08-04T06:49:31;4.78;;;1.20;;
16314;SDS011;8266;52.150;4.768;2022-08-04T06:52:00;3.72;;;1.60;;
16314;SDS011;8266;52.150;4.768;2022-08-04T06:54:29;1.58;;;1.00;;
16314;SDS011;8266;52.150;4.768;2022-08-04T06:56:56;2.00;;;1.42;;
16314;SDS011;8266;52.150;4.768;2022-08-04T06:59:24;2.00;;;1.23;;
16314;SDS011;8266;52.150;4.768;2022-08-04T07:01:52;3.03;;;1.50;;
16314;SDS011;8266;52.150;4.768;2022-08-04T07:04:21;3.47;;;1.30;;
16314;SDS011;8266;52.150;4.768;2022-08-04T07:06:48;3.03;;;1.13;;
16314;SDS011;8266;52.150;4.768;2022-08-04T07:09:16;4.78;;;1.45;;
16314;SDS011;8266;52.150;4.768;2022-08-04T07:11:43;2.53;;;0.90;;
16314;SDS011;8266;52.150;4.768;2022-08-04T07:14:11;2.55;;;1.20;;
16314;SDS011;8266;52.150;4.768;2022-08-04T07:16:41;3.15;;;1.23;;
16314;SDS011;8266;52.150;4.768;2022-08-04T07:19:08;4.63;;;1.13;;
16314;SDS011;8266;52.150;4.768;2022-08-04T07:21:43;4.82;;;1.30;;
16314;SDS011;8266;52.150;4.768;2022-08-04T07:27:42;2.60;;;0.98;;
16314;SDS011;8266;52.150;4.768;2022-08-04T07:30:17;2.78;;;1.02;;
16314;SDS011;8266;52.150;4.768;2022-08-04T07:32:46;1.75;;;0.98;;
16314;SDS011;8266;52.150;4.768;2022-08-04T07:35:22;2.80;;;0.93;;
16314;SDS011;8266;52.150;4.768;2022-08-04T07:38:02;2.38;;;1.13;;
16314;SDS011;8266;52.150;4.768;2022-08-04T07:40:34;1.58;;;1.05;;
16314;SDS011;8266;52.150;4.768;2022-08-04T07:43:25;2.55;;;0.80;;
16314;SDS011;8266;52.150;4.768;2022-08-04T07:45:52;1.90;;;1.05;;
16314;SDS011;8266;52.150;4.768;2022-08-04T07:48:22;2.83;;;0.70;;
16314;SDS011;8266;52.150;4.768;2022-08-04T07:50:49;4.40;;;1.25;;
16314;SDS011;8266;52.150;4.768;2022-08-04T07:53:19;3.60;;;0.88;;
16314;SDS011;8266;52.150;4.768;2022-08-04T07:55:47;3.03;;;0.88;;
16314;SDS011;8266;52.150;4.768;2022-08-04T07:58:15;2.72;;;1.05;;
16314;SDS011;8266;52.150;4.768;2022-08-04T08:00:44;2.17;;;0.80;;
16314;SDS011;8266;52.150;4.768;2022-08-04T08:03:13;1.45;;;1.00;;
16314;SDS011;8266;52.150;4.768;2022-08-04T08:05:41;2.17;;;1.00;;
16314;SDS011;8266;52.150;4.768;2022-08-04T08:08:08;1.65;;;0.90;;
16314;SDS011;8266;52.150;4.768;2022-08-04T08:10:35;3.20;;;0.90;;
16314;SDS011;8266;52.150;4.768;2022-08-04T08:13:11;2.67;;;0.80;;
16314;SDS011;8266;52.150;4.768;2022-08-04T08:15:38;1.88;;;0.88;;
16314;SDS011;8266;52.150;4.768;2022-08-04T08:18:08;0.70;;;0.47;;
16314;SDS011;8266;52.150;4.768;2022-08-04T08:20:35;1.17;;;0.70;;
16314;SDS011;8266;52.150;4.768;2022-08-04T08:23:02;1.98;;;0.68;;
16314;SDS011;8266;52.150;4.768;2022-08-04T08:25:29;2.70;;;1.15;;
16314;SDS011;8266;52.150;4.768;2022-08-04T08:27:58;3.30;;;0.93;;
16314;SDS011;8266;52.150;4.768;2022-08-04T08:30:27;1.50;;;0.57;;
16314;SDS011;8266;52.150;4.768;2022-08-04T08:32:54;1.20;;;0.80;;
16314;SDS011;8266;52.150;4.768;2022-08-04T08:35:23;1.25;;;0.80;;
16314;SDS011;8266;52.150;4.768;2022-08-04T08:37:53;0.82;;;0.80;;
16314;SDS011;8266;52.150;4.768;2022-08-04T08:40:28;2.50;;;0.70;;
16314;SDS011;8266;52.150;4.768;2022-08-04T08:43:18;1.27;;;0.73;;
16314;SDS011;8266;52.150;4.768;2022-08-04T08:46:19;1.98;;;0.90;;
16314;SDS011;8266;52.150;4.768;2022-08-04T08:49:19;3.25;;;0.90;;
16314;SDS011;8266;52.150;4.768;2022-08-04T08:52:28;1.80;;;0.98;;
16314;SDS011;8266;52.150;4.768;2022-08-04T08:55:19;2.22;;;1.00;;
16314;SDS011;8266;52.150;4.768;2022-08-04T08:58:01;1.02;;;0.55;;
16314;SDS011;8266;52.150;4.768;2022-08-04T09:00:52;1.35;;;0.70;;
16314;SDS011;8266;52.150;4.768;2022-08-04T09:03:53;2.15;;;0.90;;
16314;SDS011;8266;52.150;4.768;2022-08-04T09:06:46;1.48;;;0.80;;
16314;SDS011;8266;52.150;4.768;2022-08-04T09:12:38;0.75;;;0.52;;
16314;SDS011;8266;52.150;4.768;2022-08-04T09:15:12;1.73;;;0.90;;
16314;SDS011;8266;52.150;4.768;2022-08-04T09:17:42;1.52;;;1.05;;
16314;SDS011;8266;52.150;4.768;2022-08-04T09:20:14;2.20;;;0.90;;
16314;SDS011;8266;52.150;4.768;2022-08-04T09:22:49;0.98;;;0.50;;
16314;SDS011;8266;52.150;4.768;2022-08-04T09:25:27;1.92;;;0.70;;
16314;SDS011;8266;52.150;4.768;2022-08-04T09:28:09;1.60;;;0.50;;
16314;SDS011;8266;52.150;4.768;2022-08-04T09:30:44;1.02;;;0.50;;
16314;SDS011;8266;52.150;4.768;2022-08-04T09:33:17;2.90;;;0.65;;
16314;SDS011;8266;52.150;4.768;2022-08-04T09:35:56;1.50;;;0.70;;
16314;SDS011;8266;52.150;4.768;2022-08-04T09:38:34;2.10;;;0.73;;
16314;SDS011;8266;52.150;4.768;2022-08-04T09:41:14;1.73;;;0.80;;
16314;SDS011;8266;52.150;4.768;2022-08-04T09:43:57;2.92;;;0.60;;
16314;SDS011;8266;52.150;4.768;2022-08-04T09:46:50;1.00;;;0.50;;
16314;SDS011;8266;52.150;4.768;2022-08-04T09:49:26;1.48;;;0.80;;
16314;SDS011;8266;52.150;4.768;2022-08-04T09:52:05;2.60;;;0.70;;
16314;SDS011;8266;52.150;4.768;2022-08-04T09:54:42;1.23;;;0.60;;
16314;SDS011;8266;52.150;4.768;2022-08-04T09:57:20;1.75;;;0.70;;
16314;SDS011;8266;52.150;4.768;2022-08-04T09:59:57;0.60;;;0.50;;
16314;SDS011;8266;52.150;4.768;2022-08-04T10:02:28;1.92;;;0.60;;
16314;SDS011;8266;52.150;4.768;2022-08-04T10:04:57;0.70;;;0.70;;
16314;SDS011;8266;52.150;4.768;2022-08-04T10:07:34;1.45;;;0.60;;
16314;SDS011;8266;52.150;4.768;2022-08-04T10:10:23;0.60;;;0.43;;
16314;SDS011;8266;52.150;4.768;2022-08-04T10:16:25;1.48;;;0.70;;
16314;SDS011;8266;52.150;4.768;2022-08-04T10:19:08;1.27;;;0.70;;
16314;SDS011;8266;52.150;4.768;2022-08-04T10:21:51;1.30;;;0.70;;
16314;SDS011;8266;52.150;4.768;2022-08-04T10:24:34;1.92;;;0.70;;
16314;SDS011;8266;52.150;4.768;2022-08-04T10:27:08;1.88;;;0.82;;
16314;SDS011;8266;52.150;4.768;2022-08-04T10:29:41;1.75;;;0.60;;
16314;SDS011;8266;52.150;4.768;2022-08-04T10:32:10;0.85;;;0.50;;
16314;SDS011;8266;52.150;4.768;2022-08-04T10:34:46;1.35;;;0.57;;
16314;SDS011;8266;52.150;4.768;2022-08-04T10:37:26;0.65;;;0.60;;
16314;SDS011;8266;52.150;4.768;2022-08-04T10:39:58;3.53;;;0.70;;
16314;SDS011;8266;52.150;4.768;2022-08-04T10:42:49;1.50;;;0.57;;
16314;SDS011;8266;52.150;4.768;2022-08-04T10:45:27;1.48;;;0.68;;
16314;SDS011;8266;52.150;4.768;2022-08-04T10:48:01;1.65;;;0.80;;
16314;SDS011;8266;52.150;4.768;2022-08-04T10:50:33;2.88;;;0.80;;
16314;SDS011;8266;52.150;4.768;2022-08-04T10:53:04;0.93;;;0.70;;
16314;SDS011;8266;52.150;4.768;2022-08-04T10:55:40;2.65;;;0.80;;
16314;SDS011;8266;52.150;4.768;2022-08-04T10:58:13;1.27;;;0.80;;
16314;SDS011;8266;52.150;4.768;2022-08-04T11:00:45;1.38;;;0.60;;
16314;SDS011;8266;52.150;4.768;2022-08-04T11:03:16;3.88;;;0.85;;
16314;SDS011;8266;52.150;4.768;2022-08-04T11:05:48;1.73;;;0.80;;
16314;SDS011;8266;52.150;4.768;2022-08-04T11:08:19;1.17;;;0.50;;
16314;SDS011;8266;52.150;4.768;2022-08-04T11:10:49;1.13;;;0.65;;
16314;SDS011;8266;52.150;4.768;2022-08-04T11:13:24;2.47;;;0.77;;
16314;SDS011;8266;52.150;4.768;2022-08-04T11:16:01;1.75;;;0.60;;
16314;SDS011;8266;52.150;4.768;2022-08-04T11:18:34;1.10;;;0.60;;
16314;SDS011;8266;52.150;4.768;2022-08-04T11:21:11;1.05;;;0.60;;
16314;SDS011;8266;52.150;4.768;2022-08-04T11:23:43;0.45;;;0.40;;
16314;SDS011;8266;52.150;4.768;2022-08-04T11:26:20;1.58;;;0.70;;
16314;SDS011;8266;52.150;4.768;2022-08-04T11:28:56;3.55;;;0.50;;
16314;SDS011;8266;52.150;4.768;2022-08-04T11:31:34;0.80;;;0.45;;
16314;SDS011;8266;52.150;4.768;2022-08-04T11:34:08;0.70;;;0.55;;
16314;SDS011;8266;52.150;4.768;2022-08-04T11:36:44;3.13;;;0.60;;
16314;SDS011;8266;52.150;4.768;2022-08-04T11:39:21;0.40;;;0.30;;
16314;SDS011;8266;52.150;4.768;2022-08-04T11:41:55;1.05;;;0.40;;
16314;SDS011;8266;52.150;4.768;2022-08-04T11:44:28;0.90;;;0.40;;
16314;SDS011;8266;52.150;4.768;2022-08-04T11:47:02;4.88;;;0.63;;
16314;SDS011;8266;52.150;4.768;2022-08-04T11:49:37;1.27;;;0.80;;
16314;SDS011;8266;52.150;4.768;2022-08-04T11:52:09;0.77;;;0.60;;
16314;SDS011;8266;52.150;4.768;2022-08-04T11:54:40;1.42;;;0.68;;
16314;SDS011;8266;52.150;4.768;2022-08-04T11:57:08;0.60;;;0.30;;
16314;SDS011;8266;52.150;4.768;2022-08-04T11:59:38;1.98;;;0.50;;
16314;SDS011;8266;52.150;4.768;2022-08-04T12:05:07;2.30;;;0.82;;
16314;SDS011;8266;52.150;4.768;2022-08-04T12:07:37;1.50;;;0.47;;
16314;SDS011;8266;52.150;4.768;2022-08-04T12:10:16;0.65;;;0.50;;
16314;SDS011;8266;52.150;4.768;2022-08-04T12:12:51;1.02;;;0.70;;
16314;SDS011;8266;52.150;4.768;2022-08-04T12:15:25;1.05;;;0.68;;
16314;SDS011;8266;52.150;4.768;2022-08-04T12:17:59;0.57;;;0.40;;
16314;SDS011;8266;52.150;4.768;2022-08-04T12:20:38;1.27;;;0.60;;
16314;SDS011;8266;52.150;4.768;2022-08-04T12:23:14;1.52;;;0.57;;
16314;SDS011;8266;52.150;4.768;2022-08-04T12:25:45;1.00;;;0.63;;
16314;SDS011;8266;52.150;4.768;2022-08-04T12:28:15;1.90;;;0.65;;
16314;SDS011;8266;52.150;4.768;2022-08-04T12:30:50;2.05;;;0.70;;
16314;SDS011;8266;52.150;4.768;2022-08-04T12:33:26;0.82;;;0.70;;
16314;SDS011;8266;52.150;4.768;2022-08-04T12:36:01;0.88;;;0.55;;
16314;SDS011;8266;52.150;4.768;2022-08-04T12:38:35;1.38;;;0.60;;
16314;SDS011;8266;52.150;4.768;2022-08-04T12:41:13;0.82;;;0.45;;
16314;SDS011;8266;52.150;4.768;2022-08-04T12:43:44;0.90;;;0.45;;
16314;SDS011;8266;52.150;4.768;2022-08-04T12:46:21;0.95;;;0.40;;
16314;SDS011;8266;52.150;4.768;2022-08-04T12:48:51;0.70;;;0.40;;
16314;SDS011;8266;52.150;4.768;2022-08-04T12:51:25;1.23;;;0.57;;
16314;SDS011;8266;52.150;4.768;2022-08-04T12:53:54;1.10;;;0.50;;
16314;SDS011;8266;52.150;4.768;2022-08-04T12:56:30;0.85;;;0.50;;
16314;SDS011;8266;52.150;4.768;2022-08-04T12:58:59;1.13;;;0.60;;
16314;SDS011;8266;52.150;4.768;2022-08-04T13:01:28;1.65;;;0.82;;
16314;SDS011;8266;52.150;4.768;2022-08-04T13:03:58;0.63;;;0.50;;
16314;SDS011;8266;52.150;4.768;2022-08-04T13:06:29;1.40;;;0.55;;
16314;SDS011;8266;52.150;4.768;2022-08-04T13:09:02;1.48;;;0.60;;
16314;SDS011;8266;52.150;4.768;2022-08-04T13:11:35;1.00;;;0.60;;
16314;SDS011;8266;52.150;4.768;2022-08-04T13:14:05;0.85;;;0.50;;
16314;SDS011;8266;52.150;4.768;2022-08-04T13:16:37;2.95;;;0.60;;
16314;SDS011;8266;52.150;4.768;2022-08-04T13:19:06;2.03;;;0.70;;
16314;SDS011;8266;52.150;4.768;2022-08-04T13:21:39;1.45;;;0.60;;
16314;SDS011;8266;52.150;4.768;2022-08-04T13:24:09;0.82;;;0.50;;
16314;SDS011;8266;52.150;4.768;2022-08-04T13:26:45;3.10;;;0.65;;
16314;SDS011;8266;52.150;4.768;2022-08-04T13:29:15;1.23;;;0.50;;
16314;SDS011;8266;52.150;4.768;2022-08-04T13:31:46;2.03;;;0.70;;
16314;SDS011;8266;52.150;4.768;2022-08-04T13:34:16;2.38;;;0.65;;
16314;SDS011;8266;52.150;4.768;2022-08-04T13:36:44;1.80;;;0.80;;
16314;SDS011;8266;52.150;4.768;2022-08-04T13:39:14;2.22;;;1.00;;
16314;SDS011;8266;52.150;4.768;2022-08-04T13:41:44;4.53;;;0.93;;
16314;SDS011;8266;52.150;4.768;2022-08-04T13:44:17;1.60;;;0.60;;
16314;SDS011;8266;52.150;4.768;2022-08-04T13:46:46;5.13;;;0.88;;
16314;SDS011;8266;52.150;4.768;2022-08-04T13:49:21;1.48;;;0.55;;
16314;SDS011;8266;52.150;4.768;2022-08-04T13:51:48;1.60;;;0.80;;
16314;SDS011;8266;52.150;4.768;2022-08-04T13:54:18;1.02;;;0.60;;
16314;SDS011;8266;52.150;4.768;2022-08-04T13:56:47;3.13;;;0.52;;
16314;SDS011;8266;52.150;4.768;2022-08-04T13:59:17;3.33;;;0.80;;
16314;SDS011;8266;52.150;4.768;2022-08-04T14:01:55;0.95;;;0.73;;
16314;SDS011;8266;52.150;4.768;2022-08-04T14:04:30;1.80;;;0.57;;
16314;SDS011;8266;52.150;4.768;2022-08-04T14:07:10;0.90;;;0.60;;
16314;SDS011;8266;52.150;4.768;2022-08-04T14:09:43;2.72;;;0.88;;
16314;SDS011;8266;52.150;4.768;2022-08-04T14:12:21;2.08;;;0.65;;
16314;SDS011;8266;52.150;4.768;2022-08-04T14:14:50;4.10;;;1.02;;
16314;SDS011;8266;52.150;4.768;2022-08-04T14:17:22;2.28;;;0.63;;
16314;SDS011;8266;52.150;4.768;2022-08-04T14:19:53;3.13;;;0.65;;
16314;SDS011;8266;52.150;4.768;2022-08-04T14:25:13;1.52;;;0.73;;
16314;SDS011;8266;52.150;4.768;2022-08-04T14:27:55;1.42;;;0.80;;
16314;SDS011;8266;52.150;4.768;2022-08-04T14:30:24;2.33;;;0.90;;
16314;SDS011;8266;52.150;4.768;2022-08-04T14:32:56;2.50;;;0.73;;
16314;SDS011;8266;52.150;4.768;2022-08-04T14:35:26;1.75;;;0.65;;
16314;SDS011;8266;52.150;4.768;2022-08-04T14:37:53;2.03;;;1.00;;
16314;SDS011;8266;52.150;4.768;2022-08-04T14:40:23;1.33;;;0.80;;
16314;SDS011;8266;52.150;4.768;2022-08-04T14:42:51;1.55;;;0.70;;
16314;SDS011;8266;52.150;4.768;2022-08-04T14:45:19;1.77;;;0.80;;
16314;SDS011;8266;52.150;4.768;2022-08-04T14:47:53;2.08;;;1.10;;
16314;SDS011;8266;52.150;4.768;2022-08-04T14:50:21;2.42;;;0.77;;
16314;SDS011;8266;52.150;4.768;2022-08-04T14:53:01;4.35;;;0.80;;
16314;SDS011;8266;52.150;4.768;2022-08-04T14:55:30;2.45;;;0.73;;
16314;SDS011;8266;52.150;4.768;2022-08-04T14:57:57;1.67;;;0.90;;
16314;SDS011;8266;52.150;4.768;2022-08-04T15:00:24;1.17;;;0.80;;
16314;SDS011;8266;52.150;4.768;2022-08-04T15:02:53;0.90;;;0.70;;
16314;SDS011;8266;52.150;4.768;2022-08-04T15:05:25;1.80;;;0.98;;
16314;SDS011;8266;52.150;4.768;2022-08-04T15:07:55;2.47;;;0.90;;
16314;SDS011;8266;52.150;4.768;2022-08-04T15:10:22;2.05;;;1.05;;
16314;SDS011;8266;52.150;4.768;2022-08-04T15:12:50;1.58;;;0.77;;
16314;SDS011;8266;52.150;4.768;2022-08-04T15:15:17;1.73;;;0.68;;
16314;SDS011;8266;52.150;4.768;2022-08-04T15:17:44;1.45;;;0.70;;
16314;SDS011;8266;52.150;4.768;2022-08-04T15:20:11;1.77;;;0.80;;
16314;SDS011;8266;52.150;4.768;2022-08-04T15:22:39;2.25;;;0.80;;
16314;SDS011;8266;52.150;4.768;2022-08-04T15:25:08;1.52;;;0.75;;
16314;SDS011;8266;52.150;4.768;2022-08-04T15:27:35;1.95;;;0.65;;
16314;SDS011;8266;52.150;4.768;2022-08-04T15:30:04;3.72;;;1.05;;
16314;SDS011;8266;52.150;4.768;2022-08-04T15:32:34;2.78;;;0.73;;
16314;SDS011;8266;52.150;4.768;2022-08-04T15:35:04;2.13;;;0.98;;
16314;SDS011;8266;52.150;4.768;2022-08-04T15:37:38;3.00;;;0.80;;
16314;SDS011;8266;52.150;4.768;2022-08-04T15:40:15;1.65;;;0.70;;
16314;SDS011;8266;52.150;4.768;2022-08-04T15:42:48;2.30;;;0.80;;
16314;SDS011;8266;52.150;4.768;2022-08-04T15:45:31;2.05;;;0.75;;
16314;SDS011;8266;52.150;4.768;2022-08-04T15:51:03;1.88;;;0.75;;
16314;SDS011;8266;52.150;4.768;2022-08-04T15:56:47;1.95;;;0.60;;
16314;SDS011;8266;52.150;4.768;2022-08-04T15:59:15;3.13;;;0.70;;
16314;SDS011;8266;52.150;4.768;2022-08-04T16:07:55;1.52;;;0.50;;
16314;SDS011;8266;52.150;4.768;2022-08-04T16:10:37;0.68;;;0.50;;
16314;SDS011;8266;52.150;4.768;2022-08-04T16:13:08;0.90;;;0.50;;
16314;SDS011;8266;52.150;4.768;2022-08-04T16:15:42;1.80;;;0.80;;
16314;SDS011;8266;52.150;4.768;2022-08-04T16:18:19;1.83;;;0.73;;
16314;SDS011;8266;52.150;4.768;2022-08-04T16:21:18;1.80;;;0.60;;
16314;SDS011;8266;52.150;4.768;2022-08-04T16:23:53;2.25;;;0.70;;
16314;SDS011;8266;52.150;4.768;2022-08-04T16:26:47;1.88;;;0.80;;
16314;SDS011;8266;52.150;4.768;2022-08-04T16:29:31;1.38;;;0.60;;
16314;SDS011;8266;52.150;4.768;2022-08-04T16:34:48;1.08;;;0.52;;
16314;SDS011;8266;52.150;4.768;2022-08-04T16:37:20;1.83;;;0.95;;
16314;SDS011;8266;52.150;4.768;2022-08-04T16:39:48;2.25;;;0.60;;
16314;SDS011;8266;52.150;4.768;2022-08-04T16:42:33;1.98;;;0.70;;
16314;SDS011;8266;52.150;4.768;2022-08-04T16:45:09;1.55;;;0.63;;
16314;SDS011;8266;52.150;4.768;2022-08-04T16:50:26;1.40;;;0.60;;
16314;SDS011;8266;52.150;4.768;2022-08-04T16:52:55;1.60;;;0.70;;